Archival Weather

Sydney Intl

Sydney, Australia (YSSY)

Report from: Wednesday, September 20, 2023 9:33 PM AEST
Current time: Monday, June 17, 2024 8:22 PM AEST

Current weather – Weather history – Daily summaries
Weather forecast

Temperature22.0°C (71.6°F)
Dew point13.0°C (55.4°F)
Winds 21 kts (10.8 m/s, 24.2 mph) South-Southeast (160°)
Wind gusts 31 kts (15.9 m/s, 35.7 mph)
Clouds Sky clear
Altimeter29.77 in.Hg (1008 mB)
Relative humidity57 %
Density altitude1,202 ft. (366 m)
Remarks Ceiling and visibility OK
Special weather observation
Flight conditions Visual Meteorological Conditions
Raw dataSPAU31 KWBC 201138 SPECI YSSY 201133Z 16021G31KT CAVOK 22/13 Q1008 BKN150
An error has occurred. This application may no longer respond until reloaded. Reload 🗙